Time;durP1;ratioP1;P1;durP2;ratioP2;P2;SDS_P1;SDS_P2;PMS_P1;PMS_P2;Temp;Humidity;BMP_temperature;BMP_pressure;BME280_temperature;BME280_humidity;BME280_pressure;Samples;Min_cycle;Max_cycle;Signal;HPM_P1;HPM_P2
2022/05/06 00:01:56;;;;;;;29.60;20.52;;;;;;;;;;5023370;28;20046;-70
2022/05/06 00:04:24;;;;;;;28.40;19.75;;;;;;;;;;5019406;28;20052;-70
2022/05/06 00:06:51;;;;;;;30.20;21.17;;;;;;;;;;5037152;28;20057;-71
2022/05/06 00:09:16;;;;;;;31.30;21.23;;;;;;;;;;5037946;28;20058;-69
2022/05/06 00:11:42;;;;;;;30.10;21.73;;;;;;;;;;5040474;28;20060;-71
2022/05/06 00:14:10;;;;;;;28.23;20.75;;;;;;;;;;5017266;28;20026;-70
2022/05/06 00:16:36;;;;;;;31.75;21.17;;;;;;;;;;5037700;28;20026;-71
2022/05/06 00:19:02;;;;;;;33.97;22.08;;;;;;;;;;5040988;28;20025;-70
2022/05/06 00:21:28;;;;;;;29.65;21.13;;;;;;;;;;5041061;28;20042;-70
2022/05/06 00:23:54;;;;;;;29.00;21.15;;;;;;;;;;5040667;28;20042;-72
2022/05/06 00:26:20;;;;;;;30.13;21.17;;;;;;;;;;5040646;28;20047;-70
2022/05/06 00:28:46;;;;;;;29.25;21.30;;;;;;;;;;5039226;28;20108;-71
2022/05/06 00:31:12;;;;;;;30.98;21.35;;;;;;;;;;5023156;28;20049;-71
2022/05/06 00:33:38;;;;;;;35.78;23.25;;;;;;;;;;5039656;28;20026;-71
2022/05/06 00:36:04;;;;;;;31.67;22.58;;;;;;;;;;5040202;28;20024;-71
2022/05/06 00:38:31;;;;;;;31.30;23.38;;;;;;;;;;5039592;28;20026;-70
2022/05/06 00:40:58;;;;;;;34.25;22.63;;;;;;;;;;5037867;28;20031;-70
2022/05/06 00:43:27;;;;;;;32.60;22.70;;;;;;;;;;5035602;28;20030;-71
2022/05/06 00:45:54;;;;;;;31.02;21.70;;;;;;;;;;5023197;28;20034;-71
2022/05/06 00:48:25;;;;;;;28.90;20.70;;;;;;;;;;5039030;28;20046;-70
2022/05/06 00:50:52;;;;;;;33.63;21.80;;;;;;;;;;5041349;28;20068;-70
2022/05/06 00:53:18;;;;;;;26.67;20.70;;;;;;;;;;5039571;28;20022;-70
2022/05/06 00:55:44;;;;;;;31.48;22.50;;;;;;;;;;5039757;28;20038;-70
2022/05/06 00:58:10;;;;;;;35.47;22.42;;;;;;;;;;5038054;28;20046;-72
2022/05/06 01:00:36;;;;;;;31.60;22.98;;;;;;;;;;5018862;28;20030;-71
2022/05/06 01:03:03;;;;;;;29.20;21.63;;;;;;;;;;5022943;28;20031;-70
2022/05/06 01:05:30;;;;;;;33.55;21.88;;;;;;;;;;5036594;28;20017;-71
2022/05/06 01:07:58;;;;;;;27.17;20.98;;;;;;;;;;5039090;28;20074;-70
2022/05/06 01:10:24;;;;;;;32.08;20.95;;;;;;;;;;5040803;28;20037;-70
2022/05/06 01:12:50;;;;;;;31.85;21.70;;;;;;;;;;5039660;28;20027;-70
2022/05/06 01:15:18;;;;;;;34.17;22.88;;;;;;;;;;5039747;28;20293;-70
2022/05/06 01:17:44;;;;;;;29.55;20.25;;;;;;;;;;5037742;28;20048;-70
2022/05/06 01:20:11;;;;;;;30.13;21.50;;;;;;;;;;5037762;28;20046;-71
2022/05/06 01:22:38;;;;;;;32.35;21.67;;;;;;;;;;5025706;28;20022;-70
2022/05/06 01:25:04;;;;;;;27.20;20.60;;;;;;;;;;5020941;28;20022;-71
2022/05/06 01:27:33;;;;;;;30.33;21.05;;;;;;;;;;5033556;28;20025;-71
2022/05/06 01:30:00;;;;;;;27.08;21.27;;;;;;;;;;5027785;28;20057;-70
2022/05/06 01:32:27;;;;;;;35.88;22.55;;;;;;;;;;5031672;28;20038;-71
2022/05/06 01:34:55;;;;;;;30.00;22.10;;;;;;;;;;5035382;28;20091;-71
2022/05/06 01:37:22;;;;;;;33.00;22.35;;;;;;;;;;5029145;28;20089;-70
2022/05/06 01:39:52;;;;;;;33.08;22.00;;;;;;;;;;5037585;28;20026;-70
2022/05/06 01:42:19;;;;;;;31.75;22.30;;;;;;;;;;5031439;28;20057;-71
2022/05/06 01:44:48;;;;;;;31.95;21.65;;;;;;;;;;5020864;28;20027;-71
2022/05/06 01:47:19;;;;;;;34.78;22.88;;;;;;;;;;5038863;28;20025;-70
2022/05/06 01:49:46;;;;;;;34.33;22.77;;;;;;;;;;4996879;28;20043;-71
2022/05/06 01:52:16;;;;;;;35.17;23.95;;;;;;;;;;5020645;28;20026;-71
2022/05/06 01:54:42;;;;;;;33.00;22.83;;;;;;;;;;5020153;28;20027;-71
2022/05/06 01:57:08;;;;;;;28.85;21.17;;;;;;;;;;5038429;28;20022;-71
2022/05/06 01:59:34;;;;;;;33.13;22.75;;;;;;;;;;5039944;28;20067;-71
2022/05/06 02:02:00;;;;;;;34.75;22.33;;;;;;;;;;5029032;28;20045;-71
2022/05/06 02:07:12;;;;;;;32.97;23.77;;;;;;;;;;5038258;28;20042;-71
2022/05/06 02:09:38;;;;;;;35.55;24.02;;;;;;;;;;5039883;28;20045;-70
2022/05/06 02:12:04;;;;;;;34.47;23.52;;;;;;;;;;5038679;28;20085;-71
2022/05/06 02:14:30;;;;;;;28.23;21.88;;;;;;;;;;5038911;28;20053;-71
2022/05/06 02:16:56;;;;;;;29.50;21.80;;;;;;;;;;5019254;28;20040;-71
2022/05/06 02:19:22;;;;;;;29.42;21.98;;;;;;;;;;5034889;28;20026;-71
2022/05/06 02:21:48;;;;;;;33.00;23.67;;;;;;;;;;5030783;28;20023;-71
2022/05/06 02:24:14;;;;;;;31.23;23.30;;;;;;;;;;5025451;28;20056;-71
2022/05/06 02:26:40;;;;;;;34.17;23.58;;;;;;;;;;5021729;28;20029;-71
2022/05/06 02:29:06;;;;;;;30.92;23.15;;;;;;;;;;5038302;28;20029;-71
2022/05/06 02:34:18;;;;;;;28.25;21.70;;;;;;;;;;5027369;28;20030;-71
2022/05/06 02:36:47;;;;;;;28.23;20.30;;;;;;;;;;5012751;28;20037;-71
2022/05/06 02:39:14;;;;;;;27.40;19.65;;;;;;;;;;5036927;28;20034;-71
2022/05/06 02:41:40;;;;;;;32.88;22.75;;;;;;;;;;5039357;28;20026;-70
2022/05/06 02:44:06;;;;;;;32.15;22.88;;;;;;;;;;5037687;28;20034;-70
2022/05/06 02:46:35;;;;;;;33.70;23.35;;;;;;;;;;5038147;28;20020;-70
2022/05/06 02:49:02;;;;;;;35.15;23.08;;;;;;;;;;5033254;28;20017;-71
2022/05/06 02:51:28;;;;;;;33.95;22.80;;;;;;;;;;5036588;28;20029;-71
2022/05/06 02:53:56;;;;;;;32.47;22.65;;;;;;;;;;5037493;28;20030;-71
2022/05/06 02:56:22;;;;;;;33.50;23.25;;;;;;;;;;5034892;28;20056;-70
2022/05/06 02:58:48;;;;;;;36.42;25.05;;;;;;;;;;5038373;28;20478;-70
2022/05/06 03:01:14;;;;;;;35.45;23.65;;;;;;;;;;5014921;28;20090;-71
2022/05/06 03:03:40;;;;;;;32.80;22.27;;;;;;;;;;5034508;28;20093;-71
2022/05/06 03:06:06;;;;;;;33.63;23.35;;;;;;;;;;5038000;28;20038;-70
2022/05/06 03:08:35;;;;;;;33.28;23.02;;;;;;;;;;5037805;28;20032;-71
2022/05/06 03:11:01;;;;;;;32.75;23.65;;;;;;;;;;5038607;28;20086;-70
2022/05/06 03:13:27;;;;;;;33.83;22.65;;;;;;;;;;5037801;28;20053;-71
2022/05/06 03:15:53;;;;;;;31.05;22.42;;;;;;;;;;5035455;28;20030;-71
2022/05/06 03:18:20;;;;;;;36.20;23.85;;;;;;;;;;5019768;28;20081;-71
2022/05/06 03:20:46;;;;;;;32.28;23.30;;;;;;;;;;5034121;28;20025;-71
2022/05/06 03:23:15;;;;;;;34.10;23.98;;;;;;;;;;5035844;28;20030;-71
2022/05/06 03:25:41;;;;;;;33.95;22.60;;;;;;;;;;5038526;28;20053;-70
2022/05/06 03:28:07;;;;;;;32.05;22.20;;;;;;;;;;5035888;28;20089;-71
2022/05/06 03:30:39;;;;;;;31.63;22.83;;;;;;;;;;5038496;28;20061;-71
2022/05/06 03:33:08;;;;;;;33.03;22.05;;;;;;;;;;5036039;28;20077;-71
2022/05/06 03:35:34;;;;;;;34.28;23.48;;;;;;;;;;5037816;28;20033;-70
2022/05/06 03:38:00;;;;;;;29.92;21.92;;;;;;;;;;5036543;28;20037;-72
2022/05/06 03:40:26;;;;;;;32.03;22.95;;;;;;;;;;5031939;28;20090;-72
2022/05/06 03:42:52;;;;;;;26.77;20.77;;;;;;;;;;5037978;28;20053;-71
2022/05/06 03:45:18;;;;;;;31.15;21.05;;;;;;;;;;5037511;28;20029;-70
2022/05/06 03:47:44;;;;;;;27.75;20.77;;;;;;;;;;5034836;28;20041;-71
2022/05/06 03:52:55;;;;;;;30.85;20.48;;;;;;;;;;5012189;28;20057;-71
2022/05/06 03:55:21;;;;;;;26.70;20.00;;;;;;;;;;5037763;28;20026;-70
2022/05/06 03:57:47;;;;;;;28.13;20.15;;;;;;;;;;5036775;28;20049;-70
2022/05/06 04:00:14;;;;;;;28.60;20.25;;;;;;;;;;5038094;28;20033;-71
2022/05/06 04:02:41;;;;;;;29.80;20.08;;;;;;;;;;5016641;28;20038;-71
2022/05/06 04:05:07;;;;;;;29.05;19.08;;;;;;;;;;5028245;28;20026;-71
2022/05/06 04:07:33;;;;;;;28.42;19.17;;;;;;;;;;5011846;28;20025;-71
2022/05/06 04:09:59;;;;;;;25.83;18.70;;;;;;;;;;5027867;28;20030;-72
2022/05/06 04:12:25;;;;;;;27.40;18.90;;;;;;;;;;5038347;28;20028;-70
2022/05/06 04:14:51;;;;;;;28.92;17.50;;;;;;;;;;5033951;28;20030;-71
2022/05/06 04:17:18;;;;;;;26.52;18.60;;;;;;;;;;5037121;28;20049;-71
2022/05/06 04:25:16;;;;;;;32.28;20.63;;;;;;;;;;5019767;28;20042;-71
2022/05/06 04:27:43;;;;;;;24.75;19.73;;;;;;;;;;5037020;28;20030;-70
2022/05/06 04:30:09;;;;;;;26.25;18.15;;;;;;;;;;5037496;28;20022;-70
2022/05/06 04:32:35;;;;;;;30.55;19.67;;;;;;;;;;5053656;28;20037;-70
2022/05/06 04:35:04;;;;;;;22.65;17.98;;;;;;;;;;5036498;28;20087;-71
2022/05/06 04:37:30;;;;;;;22.95;17.65;;;;;;;;;;5037129;28;20037;-71
2022/05/06 04:39:57;;;;;;;23.33;17.50;;;;;;;;;;5034241;28;20026;-71
2022/05/06 04:42:23;;;;;;;28.73;19.02;;;;;;;;;;5036994;28;20022;-71
2022/05/06 04:44:49;;;;;;;33.15;21.02;;;;;;;;;;5036234;28;20025;-71
2022/05/06 04:47:15;;;;;;;30.25;20.63;;;;;;;;;;5034378;28;20050;-70
2022/05/06 04:49:41;;;;;;;32.13;21.15;;;;;;;;;;5036864;28;20029;-72
2022/05/06 04:52:07;;;;;;;33.15;23.13;;;;;;;;;;5033395;28;20022;-71
2022/05/06 04:54:33;;;;;;;30.67;22.08;;;;;;;;;;5037216;28;20041;-72
2022/05/06 04:56:59;;;;;;;28.33;21.90;;;;;;;;;;5028330;28;20054;-71
2022/05/06 04:59:25;;;;;;;30.95;21.27;;;;;;;;;;5030595;28;20089;-70
2022/05/06 05:01:51;;;;;;;27.20;19.75;;;;;;;;;;5039661;28;20112;-71
2022/05/06 05:04:17;;;;;;;26.17;18.88;;;;;;;;;;5036398;28;20032;-71
2022/05/06 05:06:43;;;;;;;26.80;19.42;;;;;;;;;;5040248;28;20093;-71
2022/05/06 05:09:09;;;;;;;24.25;18.55;;;;;;;;;;5034306;28;20038;-71
2022/05/06 05:11:35;;;;;;;28.52;19.05;;;;;;;;;;5040239;28;20076;-71
2022/05/06 05:14:06;;;;;;;28.85;21.90;;;;;;;;;;5023435;28;20037;-71
2022/05/06 05:16:33;;;;;;;27.02;20.45;;;;;;;;;;5040522;28;20101;-72
2022/05/06 05:18:59;;;;;;;27.33;20.02;;;;;;;;;;5040888;28;20022;-71
2022/05/06 05:21:25;;;;;;;27.88;19.40;;;;;;;;;;5036243;28;20110;-72
2022/05/06 05:23:52;;;;;;;26.63;19.98;;;;;;;;;;5037870;28;20026;-71
2022/05/06 05:26:18;;;;;;;30.50;19.00;;;;;;;;;;5034162;28;20052;-71
2022/05/06 05:28:44;;;;;;;23.80;19.20;;;;;;;;;;5038894;28;20064;-72
2022/05/06 05:31:10;;;;;;;28.90;19.80;;;;;;;;;;5040539;28;20038;-71
2022/05/06 05:33:36;;;;;;;25.50;19.70;;;;;;;;;;5039766;28;20021;-72
2022/05/06 05:36:02;;;;;;;29.92;22.33;;;;;;;;;;5033945;28;20026;-72
2022/05/06 05:38:29;;;;;;;30.92;21.70;;;;;;;;;;5033982;28;20060;-70
2022/05/06 05:40:55;;;;;;;30.63;22.27;;;;;;;;;;5035848;28;20075;-72
2022/05/06 05:48:51;;;;;;;29.20;21.40;;;;;;;;;;5036759;28;20018;-72
2022/05/06 05:51:17;;;;;;;31.75;22.40;;;;;;;;;;5032400;28;20091;-71
2022/05/06 05:53:43;;;;;;;32.35;24.02;;;;;;;;;;5030041;28;20034;-72
2022/05/06 05:56:09;;;;;;;30.25;23.73;;;;;;;;;;5031162;28;20049;-71
2022/05/06 05:58:35;;;;;;;29.92;23.70;;;;;;;;;;5038069;28;20041;-73
2022/05/06 06:01:04;;;;;;;32.20;23.45;;;;;;;;;;5039650;28;20029;-71
2022/05/06 06:03:30;;;;;;;33.50;24.27;;;;;;;;;;5038070;28;20093;-71
2022/05/06 06:05:56;;;;;;;27.20;23.10;;;;;;;;;;5039217;28;20030;-71
2022/05/06 06:08:23;;;;;;;28.33;23.40;;;;;;;;;;5037034;28;20046;-72
2022/05/06 06:10:49;;;;;;;30.50;23.92;;;;;;;;;;5021864;28;20053;-72
2022/05/06 06:13:18;;;;;;;26.13;23.25;;;;;;;;;;5020797;28;20029;-71
2022/05/06 06:15:44;;;;;;;26.50;22.95;;;;;;;;;;5036996;28;20068;-71
2022/05/06 06:18:10;;;;;;;25.17;21.65;;;;;;;;;;5039682;28;20082;-71
2022/05/06 06:20:39;;;;;;;27.83;23.10;;;;;;;;;;5039494;28;20085;-71
2022/05/06 06:23:05;;;;;;;26.52;22.95;;;;;;;;;;5018598;28;20057;-71
2022/05/06 06:25:32;;;;;;;25.50;21.85;;;;;;;;;;5039328;28;20034;-71
2022/05/06 06:27:58;;;;;;;24.55;21.67;;;;;;;;;;5021424;28;20048;-72
2022/05/06 06:30:24;;;;;;;25.63;22.95;;;;;;;;;;5022118;28;20041;-71
2022/05/06 06:32:53;;;;;;;29.25;23.15;;;;;;;;;;5038412;28;20101;-71
2022/05/06 06:35:19;;;;;;;26.92;22.88;;;;;;;;;;5041011;28;20067;-72
2022/05/06 06:37:45;;;;;;;25.13;21.30;;;;;;;;;;5058666;28;20033;-72
2022/05/06 06:40:11;;;;;;;27.73;23.08;;;;;;;;;;5037820;28;20089;-71
2022/05/06 06:42:39;;;;;;;25.98;23.10;;;;;;;;;;5033089;28;20026;-71
2022/05/06 06:45:05;;;;;;;28.08;22.15;;;;;;;;;;5019132;28;20030;-71
2022/05/06 06:47:31;;;;;;;27.60;22.15;;;;;;;;;;5038364;28;20038;-71
2022/05/06 06:50:00;;;;;;;32.55;23.00;;;;;;;;;;5023116;28;20030;-72
2022/05/06 06:52:26;;;;;;;26.95;22.10;;;;;;;;;;5035607;28;20025;-71
2022/05/06 06:54:52;;;;;;;28.00;23.48;;;;;;;;;;5038816;28;20060;-71
2022/05/06 06:57:18;;;;;;;25.73;22.30;;;;;;;;;;5038032;28;20057;-72
2022/05/06 06:59:44;;;;;;;26.92;23.08;;;;;;;;;;5031000;28;20060;-71
2022/05/06 07:02:10;;;;;;;31.05;23.55;;;;;;;;;;5018279;28;20022;-71
2022/05/06 07:04:36;;;;;;;28.27;23.50;;;;;;;;;;4969618;28;20090;-71
2022/05/06 07:12:32;;;;;;;33.08;25.35;;;;;;;;;;5028304;28;20137;-72
2022/05/06 07:14:58;;;;;;;33.38;25.00;;;;;;;;;;5034530;28;20037;-73
2022/05/06 07:17:24;;;;;;;31.05;24.77;;;;;;;;;;5036110;28;20074;-73
2022/05/06 07:19:50;;;;;;;32.65;26.02;;;;;;;;;;5033534;28;20120;-72
2022/05/06 07:22:17;;;;;;;26.67;23.25;;;;;;;;;;5032168;28;20056;-73
2022/05/06 07:24:43;;;;;;;26.50;23.13;;;;;;;;;;5034844;28;20050;-72
2022/05/06 07:27:09;;;;;;;30.15;22.15;;;;;;;;;;5035435;28;20058;-72
2022/05/06 07:29:35;;;;;;;30.15;23.17;;;;;;;;;;5033746;28;20070;-72
2022/05/06 07:32:01;;;;;;;28.40;24.27;;;;;;;;;;5025419;28;20052;-73
2022/05/06 07:34:28;;;;;;;28.45;23.58;;;;;;;;;;5016133;28;20042;-72
2022/05/06 07:36:54;;;;;;;29.60;23.42;;;;;;;;;;5030782;28;20049;-73
2022/05/06 07:39:20;;;;;;;28.08;21.48;;;;;;;;;;5031514;28;20053;-73
2022/05/06 07:41:46;;;;;;;24.50;21.73;;;;;;;;;;5011236;28;20042;-71
2022/05/06 07:44:13;;;;;;;26.90;22.35;;;;;;;;;;5014221;28;20105;-73
2022/05/06 07:46:39;;;;;;;24.40;20.45;;;;;;;;;;5017576;28;20078;-73
2022/05/06 07:49:06;;;;;;;27.10;20.30;;;;;;;;;;5023520;28;20042;-71
2022/05/06 07:51:33;;;;;;;24.27;19.50;;;;;;;;;;5027897;28;20096;-72
2022/05/06 07:53:58;;;;;;;24.13;19.75;;;;;;;;;;5029281;28;20106;-72
2022/05/06 07:56:25;;;;;;;25.75;20.90;;;;;;;;;;5031961;28;20049;-72
2022/05/06 07:58:52;;;;;;;25.65;20.00;;;;;;;;;;5031300;28;20062;-71
2022/05/06 08:04:32;;;;;;;26.38;20.60;;;;;;;;;;5021506;28;20060;-73
2022/05/06 08:06:51;;;;;;;27.55;20.75;;;;;;;;;;5032228;28;20136;-72
2022/05/06 08:09:17;;;;;;;26.55;21.67;;;;;;;;;;5030997;28;20018;-72
2022/05/06 08:11:43;;;;;;;25.88;22.13;;;;;;;;;;5018919;28;20042;-72
2022/05/06 08:14:09;;;;;;;32.05;24.58;;;;;;;;;;5011909;28;20058;-72
2022/05/06 08:16:35;;;;;;;29.00;24.55;;;;;;;;;;5010577;28;20054;-73
2022/05/06 08:19:01;;;;;;;26.05;22.92;;;;;;;;;;5012285;28;20050;-71
2022/05/06 08:21:27;;;;;;;28.58;22.35;;;;;;;;;;4997634;28;20056;-72
2022/05/06 08:23:53;;;;;;;22.88;19.45;;;;;;;;;;5028354;28;20053;-72
2022/05/06 08:26:19;;;;;;;26.42;21.13;;;;;;;;;;5029074;28;20102;-72
2022/05/06 08:28:45;;;;;;;23.70;20.65;;;;;;;;;;5027766;28;20050;-71
2022/05/06 08:31:11;;;;;;;29.80;20.48;;;;;;;;;;5012730;28;20046;-72
2022/05/06 08:33:37;;;;;;;26.10;20.75;;;;;;;;;;5011601;28;20084;-71
2022/05/06 08:36:05;;;;;;;23.30;19.85;;;;;;;;;;5015698;28;20043;-71
2022/05/06 08:38:31;;;;;;;22.95;20.02;;;;;;;;;;5030731;28;20085;-72
2022/05/06 08:40:58;;;;;;;22.75;19.95;;;;;;;;;;4999301;28;20053;-72
2022/05/06 08:43:24;;;;;;;22.40;20.00;;;;;;;;;;5038993;28;20057;-72
2022/05/06 08:51:31;;;;;;;22.35;19.40;;;;;;;;;;5039142;28;20046;-72
2022/05/06 08:53:57;;;;;;;20.90;18.58;;;;;;;;;;5039206;28;20050;-72
2022/05/06 08:56:23;;;;;;;19.83;16.95;;;;;;;;;;5039145;28;20044;-72
2022/05/06 08:58:50;;;;;;;19.90;17.80;;;;;;;;;;5030143;28;20054;-74
2022/05/06 09:01:17;;;;;;;20.50;17.55;;;;;;;;;;5022900;28;20029;-73
2022/05/06 09:03:44;;;;;;;20.70;16.40;;;;;;;;;;5032302;28;20030;-71
2022/05/06 09:06:18;;;;;;;18.88;16.80;;;;;;;;;;5039531;28;20026;-73
2022/05/06 09:08:44;;;;;;;18.75;16.63;;;;;;;;;;5007701;28;20038;-71
2022/05/06 09:11:11;;;;;;;18.17;15.45;;;;;;;;;;5039842;28;20049;-71
2022/05/06 09:13:55;;;;;;;19.95;17.05;;;;;;;;;;5023644;28;20054;-72
2022/05/06 09:16:40;;;;;;;20.15;17.77;;;;;;;;;;5028401;28;20046;-72
2022/05/06 09:19:17;;;;;;;20.60;18.40;;;;;;;;;;5022508;28;20150;-72
2022/05/06 09:21:59;;;;;;;20.83;16.98;;;;;;;;;;5028142;28;20053;-72
2022/05/06 09:24:27;;;;;;;;;;;;;;;;;;5028266;28;20049;-72
2022/05/06 09:27:10;;;;;;;18.20;13.98;;;;;;;;;;5026996;28;19944;-72
2022/05/06 09:29:41;;;;;;;17.40;14.90;;;;;;;;;;5025527;28;20052;-73
2022/05/06 09:32:17;;;;;;;18.42;16.05;;;;;;;;;;5026769;28;20042;-71
2022/05/06 09:34:44;;;;;;;20.77;16.70;;;;;;;;;;5025932;28;20108;-72
2022/05/06 09:37:10;;;;;;;20.83;15.90;;;;;;;;;;5012665;28;20038;-72
2022/05/06 09:39:40;;;;;;;20.33;15.63;;;;;;;;;;5009709;28;20381;-72
2022/05/06 09:42:08;;;;;;;17.55;14.90;;;;;;;;;;5007290;28;20125;-72
2022/05/06 09:44:35;;;;;;;16.67;14.68;;;;;;;;;;5008395;28;20053;-73
2022/05/06 09:47:09;;;;;;;18.70;14.63;;;;;;;;;;5011479;28;20102;-72
2022/05/06 09:49:39;;;;;;;16.48;14.20;;;;;;;;;;5025293;28;20057;-71
2022/05/06 09:52:09;;;;;;;16.83;12.98;;;;;;;;;;5003447;28;20050;-72
2022/05/06 09:54:35;;;;;;;15.50;12.40;;;;;;;;;;5031953;28;20057;-71
2022/05/06 09:57:06;;;;;;;13.13;10.38;;;;;;;;;;5038640;28;20045;-72
2022/05/06 09:59:32;;;;;;;11.80;10.07;;;;;;;;;;5027962;28;20074;-72
2022/05/06 10:01:58;;;;;;;13.23;10.75;;;;;;;;;;5018194;28;20038;-72
2022/05/06 10:04:24;;;;;;;13.07;11.30;;;;;;;;;;5018009;28;20051;-71
2022/05/06 10:06:51;;;;;;;11.05;8.80;;;;;;;;;;5021619;28;20045;-71
2022/05/06 10:09:22;;;;;;;10.38;8.15;;;;;;;;;;5035978;28;20029;-72
2022/05/06 10:11:51;;;;;;;11.80;8.70;;;;;;;;;;5037926;28;20064;-71
2022/05/06 10:14:18;;;;;;;8.95;6.88;;;;;;;;;;5028805;28;20059;-71
2022/05/06 10:16:44;;;;;;;8.75;6.25;;;;;;;;;;5033341;28;20113;-72
2022/05/06 10:19:26;;;;;;;7.38;5.10;;;;;;;;;;5017423;28;20035;-72
2022/05/06 10:21:53;;;;;;;9.43;7.45;;;;;;;;;;5006282;28;20030;-71
2022/05/06 10:24:22;;;;;;;9.95;7.30;;;;;;;;;;5038276;28;20044;-72
2022/05/06 10:26:49;;;;;;;12.63;8.48;;;;;;;;;;5035261;28;20054;-71
2022/05/06 10:32:26;;;;;;;9.65;5.68;;;;;;;;;;5037628;28;20037;-71
2022/05/06 10:34:55;;;;;;;8.70;5.18;;;;;;;;;;5038412;28;20068;-73
2022/05/06 10:37:22;;;;;;;8.25;4.47;;;;;;;;;;5037836;28;20546;-72
2022/05/06 10:39:48;;;;;;;9.68;6.20;;;;;;;;;;5028760;28;20054;-72
2022/05/06 10:42:15;;;;;;;9.43;5.78;;;;;;;;;;5018068;28;20069;-72
2022/05/06 10:44:42;;;;;;;7.55;4.85;;;;;;;;;;5016784;28;20050;-73
2022/05/06 10:47:14;;;;;;;6.72;3.72;;;;;;;;;;5031740;28;20022;-70
2022/05/06 10:49:40;;;;;;;6.45;4.53;;;;;;;;;;5033701;28;20037;-72
2022/05/06 10:52:28;;;;;;;5.55;3.78;;;;;;;;;;5033576;28;20121;-71
2022/05/06 10:55:01;;;;;;;7.80;3.40;;;;;;;;;;5048657;28;20051;-72
2022/05/06 10:57:31;;;;;;;5.38;2.50;;;;;;;;;;5048546;28;20046;-72
2022/05/06 10:59:58;;;;;;;5.70;2.80;;;;;;;;;;5023133;28;20042;-72
2022/05/06 11:02:31;;;;;;;5.47;3.07;;;;;;;;;;5034288;28;20098;-71
2022/05/06 11:04:59;;;;;;;7.05;3.10;;;;;;;;;;5020194;28;20096;-71
2022/05/06 11:07:25;;;;;;;6.72;2.50;;;;;;;;;;5018033;28;20068;-72
2022/05/06 11:09:51;;;;;;;4.28;1.95;;;;;;;;;;5020065;28;20029;-73
2022/05/06 11:12:37;;;;;;;8.18;1.83;;;;;;;;;;5023899;28;20061;-72
2022/05/06 11:15:04;;;;;;;5.32;1.90;;;;;;;;;;4996764;28;20062;-72
2022/05/06 11:17:34;;;;;;;4.18;2.25;;;;;;;;;;5033569;28;20075;-71
2022/05/06 11:20:15;;;;;;;6.65;3.08;;;;;;;;;;5035464;28;20045;-72
2022/05/06 11:22:56;;;;;;;5.72;3.35;;;;;;;;;;5014329;28;20042;-72
2022/05/06 11:25:22;;;;;;;5.97;2.90;;;;;;;;;;5018138;28;20034;-72
2022/05/06 11:27:56;;;;;;;5.55;3.10;;;;;;;;;;5002049;28;20018;-73
2022/05/06 11:30:23;;;;;;;4.97;2.58;;;;;;;;;;5020739;28;20042;-72
2022/05/06 11:32:54;;;;;;;6.78;3.65;;;;;;;;;;5017428;28;20053;-71
2022/05/06 11:35:22;;;;;;;6.00;3.20;;;;;;;;;;5017466;28;20400;-72
2022/05/06 11:37:48;;;;;;;5.72;2.88;;;;;;;;;;5032818;28;20041;-71
2022/05/06 11:42:54;;;;;;;3.50;1.90;;;;;;;;;;4998283;28;20050;-72
2022/05/06 11:48:05;;;;;;;5.60;1.98;;;;;;;;;;5013615;28;20054;-72
2022/05/06 11:50:35;;;;;;;7.15;2.30;;;;;;;;;;5012966;28;20476;-72
2022/05/06 11:53:04;;;;;;;4.60;2.10;;;;;;;;;;5021259;28;20042;-73
2022/05/06 11:55:30;;;;;;;4.97;2.00;;;;;;;;;;5023681;28;20046;-71
2022/05/06 11:57:57;;;;;;;4.45;2.40;;;;;;;;;;5020699;28;20193;-73
2022/05/06 12:00:23;;;;;;;5.60;2.42;;;;;;;;;;5000453;28;20045;-71
2022/05/06 12:02:50;;;;;;;3.47;1.98;;;;;;;;;;5007348;28;20049;-73
2022/05/06 12:05:17;;;;;;;3.97;1.90;;;;;;;;;;5008102;28;20046;-71
2022/05/06 12:07:44;;;;;;;5.85;2.50;;;;;;;;;;5010600;28;20109;-72
2022/05/06 12:10:10;;;;;;;5.05;2.13;;;;;;;;;;5009704;28;20455;-73
2022/05/06 12:12:51;;;;;;;4.70;2.70;;;;;;;;;;5012518;28;20092;-71
2022/05/06 12:15:17;;;;;;;;;;;;;;;;;;5029471;28;20496;-71
2022/05/06 12:17:43;;;;;;;6.72;2.60;;;;;;;;;;5029100;28;19971;-72
2022/05/06 12:20:29;;;;;;;4.95;3.20;;;;;;;;;;5031168;28;20077;-71
2022/05/06 12:22:58;;;;;;;5.28;3.45;;;;;;;;;;5025982;28;20050;-70
2022/05/06 12:25:24;;;;;;;4.78;2.70;;;;;;;;;;4993910;28;20057;-72
2022/05/06 12:28:03;;;;;;;5.07;2.50;;;;;;;;;;5011183;28;20038;-71
2022/05/06 12:30:30;;;;;;;4.03;2.13;;;;;;;;;;5010322;28;20053;-71
2022/05/06 12:33:06;;;;;;;5.47;2.78;;;;;;;;;;5013845;28;20037;-72
2022/05/06 12:35:33;;;;;;;3.70;1.80;;;;;;;;;;5027264;28;20484;-71
2022/05/06 12:38:01;;;;;;;3.40;1.67;;;;;;;;;;5030138;28;20057;-71
2022/05/06 12:40:31;;;;;;;5.57;2.10;;;;;;;;;;5029641;28;20080;-73
2022/05/06 12:43:07;;;;;;;4.95;1.60;;;;;;;;;;5028926;28;20100;-71
2022/05/06 12:45:33;;;;;;;5.18;1.33;;;;;;;;;;5025255;28;20102;-72
2022/05/06 12:50:44;;;;;;;3.45;1.35;;;;;;;;;;5009076;28;20057;-72
2022/05/06 12:53:10;;;;;;;4.05;1.40;;;;;;;;;;5030166;28;20046;-72
2022/05/06 12:55:37;;;;;;;6.28;1.55;;;;;;;;;;5017441;28;20045;-72
2022/05/06 12:58:03;;;;;;;5.82;1.40;;;;;;;;;;4976270;28;20096;-71
2022/05/06 13:00:29;;;;;;;5.95;1.60;;;;;;;;;;5010502;28;20042;-71
2022/05/06 13:02:56;;;;;;;4.97;1.70;;;;;;;;;;5027293;28;20128;-72
2022/05/06 13:05:22;;;;;;;3.90;1.63;;;;;;;;;;5009547;28;20050;-71
2022/05/06 13:07:48;;;;;;;6.18;2.25;;;;;;;;;;4990851;28;20042;-72
2022/05/06 13:10:14;;;;;;;5.00;1.60;;;;;;;;;;5009534;28;20138;-71
2022/05/06 13:12:40;;;;;;;6.60;1.70;;;;;;;;;;5013756;28;20042;-72
2022/05/06 13:15:07;;;;;;;3.88;1.63;;;;;;;;;;5009541;28;20050;-71
2022/05/06 13:17:33;;;;;;;3.50;1.42;;;;;;;;;;5028052;28;20052;-71
2022/05/06 13:19:59;;;;;;;4.53;1.00;;;;;;;;;;5020983;28;20053;-72
2022/05/06 13:22:25;;;;;;;3.80;1.27;;;;;;;;;;5014628;28;20054;-72
2022/05/06 13:24:51;;;;;;;6.18;3.10;;;;;;;;;;5013997;28;20046;-71
2022/05/06 13:27:18;;;;;;;6.93;1.98;;;;;;;;;;5010378;28;20042;-72
2022/05/06 13:29:44;;;;;;;4.68;1.52;;;;;;;;;;5015248;28;20042;-71
2022/05/06 13:32:10;;;;;;;7.85;1.52;;;;;;;;;;5028412;28;20077;-71
2022/05/06 13:34:36;;;;;;;5.40;1.73;;;;;;;;;;5027567;28;20104;-72
2022/05/06 13:37:03;;;;;;;8.77;1.90;;;;;;;;;;5028701;28;20056;-71
2022/05/06 13:39:29;;;;;;;5.35;2.05;;;;;;;;;;5010563;28;20042;-72
2022/05/06 13:41:55;;;;;;;6.88;3.10;;;;;;;;;;5028703;28;20049;-71
2022/05/06 13:44:21;;;;;;;5.50;1.70;;;;;;;;;;5009962;28;20053;-71
2022/05/06 13:46:50;;;;;;;5.15;1.40;;;;;;;;;;5009435;28;20055;-72
2022/05/06 13:49:16;;;;;;;5.78;1.80;;;;;;;;;;5010558;28;20050;-72
2022/05/06 13:51:43;;;;;;;4.65;1.48;;;;;;;;;;5023717;28;20495;-71
2022/05/06 13:54:09;;;;;;;5.07;1.52;;;;;;;;;;5028999;28;20046;-72
2022/05/06 13:59:20;;;;;;;5.53;1.50;;;;;;;;;;5034406;28;20034;-72
2022/05/06 14:01:47;;;;;;;5.68;1.48;;;;;;;;;;5030616;28;20049;-72
2022/05/06 14:04:13;;;;;;;4.38;1.38;;;;;;;;;;5037397;28;20052;-72
2022/05/06 14:06:40;;;;;;;4.50;1.30;;;;;;;;;;5036000;28;20032;-72
2022/05/06 14:09:06;;;;;;;5.82;1.73;;;;;;;;;;5036977;28;20045;-72
2022/05/06 14:11:32;;;;;;;5.05;1.30;;;;;;;;;;5037094;28;20045;-71
2022/05/06 14:13:58;;;;;;;4.60;1.33;;;;;;;;;;5035363;28;20065;-71
2022/05/06 14:16:28;;;;;;;4.00;1.30;;;;;;;;;;5019122;28;20045;-72
2022/05/06 14:18:56;;;;;;;7.72;1.60;;;;;;;;;;5034952;28;20026;-73
2022/05/06 14:21:23;;;;;;;6.22;1.63;;;;;;;;;;5009533;28;20060;-72
2022/05/06 14:23:49;;;;;;;5.15;1.40;;;;;;;;;;5033972;28;20057;-71
2022/05/06 14:26:15;;;;;;;6.20;1.90;;;;;;;;;;5038162;28;20042;-71
2022/05/06 14:28:41;;;;;;;5.90;1.58;;;;;;;;;;5030778;28;20070;-71
2022/05/06 14:31:07;;;;;;;4.88;1.65;;;;;;;;;;5032145;28;20046;-72
2022/05/06 14:33:33;;;;;;;5.03;1.65;;;;;;;;;;5036159;28;20389;-72
2022/05/06 14:35:59;;;;;;;7.78;1.63;;;;;;;;;;5038117;28;20053;-72
2022/05/06 14:38:25;;;;;;;4.18;1.08;;;;;;;;;;5037633;28;20049;-72
2022/05/06 14:40:52;;;;;;;4.47;1.40;;;;;;;;;;5032994;28;20046;-71
2022/05/06 14:43:18;;;;;;;4.78;1.20;;;;;;;;;;5033973;28;20046;-73
2022/05/06 14:45:44;;;;;;;4.32;1.13;;;;;;;;;;5035517;28;20045;-72
2022/05/06 14:48:11;;;;;;;5.13;1.20;;;;;;;;;;5034543;28;20046;-72
2022/05/06 14:50:37;;;;;;;10.70;1.58;;;;;;;;;;5015664;28;20033;-71
2022/05/06 14:53:03;;;;;;;4.80;1.40;;;;;;;;;;5036333;28;20038;-71
2022/05/06 14:55:29;;;;;;;4.65;1.60;;;;;;;;;;5036507;28;20065;-71
2022/05/06 14:57:56;;;;;;;5.78;1.40;;;;;;;;;;5031542;28;20046;-72
2022/05/06 15:00:23;;;;;;;5.50;1.55;;;;;;;;;;5037628;28;20061;-72
2022/05/06 15:02:49;;;;;;;5.10;1.45;;;;;;;;;;5037760;28;20052;-72
2022/05/06 15:05:16;;;;;;;4.20;1.52;;;;;;;;;;5036433;28;20070;-70
2022/05/06 15:07:42;;;;;;;6.82;1.40;;;;;;;;;;5017827;28;20042;-71
2022/05/06 15:10:09;;;;;;;5.35;1.92;;;;;;;;;;5037389;28;20048;-71
2022/05/06 15:12:35;;;;;;;5.82;1.80;;;;;;;;;;5020836;28;20026;-71
2022/05/06 15:15:01;;;;;;;6.50;1.92;;;;;;;;;;5036217;28;20058;-71